Time;durP1;ratioP1;P1;durP2;ratioP2;P2;SDS_P1;SDS_P2;PMS_P1;PMS_P2;Temp;Humidity;BMP_temperature;BMP_pressure;BME280_temperature;BME280_humidity;BME280_pressure;Samples;Min_cycle;Max_cycle;Signal;HPM_P1;HPM_P2
2024/01/17 00:01:12;;;;;;;163.00;56.20;;;;;;;;;;5029228;28;20229;-74
2024/01/17 00:03:38;;;;;;;165.33;55.30;;;;;;;;;;5011816;28;20225;-74
2024/01/17 00:06:03;;;;;;;156.40;54.93;;;;;;;;;;5028499;28;20300;-74
2024/01/17 00:08:28;;;;;;;151.60;50.90;;;;;;;;;;5032562;28;20768;-74
2024/01/17 00:10:54;;;;;;;147.03;50.93;;;;;;;;;;5047388;28;20216;-74
2024/01/17 00:13:20;;;;;;;150.43;51.83;;;;;;;;;;5041908;28;20653;-74
2024/01/17 00:15:45;;;;;;;154.80;51.90;;;;;;;;;;5030830;28;20232;-74
2024/01/17 00:18:10;;;;;;;130.53;46.17;;;;;;;;;;5065028;28;20631;-74
2024/01/17 00:20:36;;;;;;;120.80;43.23;;;;;;;;;;5047636;28;20643;-74
2024/01/17 00:23:01;;;;;;;124.87;43.87;;;;;;;;;;5030505;28;20216;-74
2024/01/17 00:25:27;;;;;;;116.77;41.77;;;;;;;;;;5065429;28;20223;-74
2024/01/17 00:27:53;;;;;;;104.43;39.30;;;;;;;;;;5045409;28;20270;-74
2024/01/17 00:30:18;;;;;;;104.47;38.93;;;;;;;;;;5047624;28;20220;-74
2024/01/17 00:32:44;;;;;;;105.70;37.10;;;;;;;;;;5047354;28;20213;-73
2024/01/17 00:35:09;;;;;;;103.77;38.37;;;;;;;;;;5046904;28;20263;-73
2024/01/17 00:37:34;;;;;;;101.17;36.37;;;;;;;;;;5065922;28;20278;-74
2024/01/17 00:40:00;;;;;;;87.50;33.60;;;;;;;;;;5064518;28;20224;-73
2024/01/17 00:42:26;;;;;;;86.93;34.70;;;;;;;;;;5046377;28;20748;-73
2024/01/17 00:44:52;;;;;;;95.00;35.53;;;;;;;;;;5030449;28;20963;-74
2024/01/17 00:47:17;;;;;;;93.80;33.90;;;;;;;;;;5029897;28;20224;-74
2024/01/17 00:49:43;;;;;;;89.33;36.00;;;;;;;;;;5064538;28;20220;-74
2024/01/17 00:52:08;;;;;;;104.47;37.47;;;;;;;;;;5029626;28;20224;-73
2024/01/17 00:54:33;;;;;;;98.00;36.37;;;;;;;;;;5047013;28;20725;-74
2024/01/17 00:56:59;;;;;;;94.47;35.53;;;;;;;;;;5029278;28;20673;-74
2024/01/17 00:59:24;;;;;;;105.30;35.83;;;;;;;;;;5030079;28;20308;-74
2024/01/17 01:01:49;;;;;;;79.53;30.57;;;;;;;;;;5030057;28;20224;-74
2024/01/17 01:04:15;;;;;;;84.50;30.00;;;;;;;;;;5028226;28;20225;-74
2024/01/17 01:06:40;;;;;;;81.60;29.60;;;;;;;;;;5030622;28;20229;-74
2024/01/17 01:09:06;;;;;;;71.17;28.93;;;;;;;;;;5063635;28;20624;-74
2024/01/17 01:11:32;;;;;;;69.87;27.13;;;;;;;;;;5046841;28;20269;-73
2024/01/17 01:13:58;;;;;;;69.17;27.17;;;;;;;;;;5046010;28;21034;-74
2024/01/17 01:16:23;;;;;;;67.80;25.97;;;;;;;;;;5046883;28;20732;-74
2024/01/17 01:18:48;;;;;;;64.43;26.07;;;;;;;;;;5029609;28;20224;-73
2024/01/17 01:21:14;;;;;;;60.23;23.77;;;;;;;;;;5045294;28;20227;-74
2024/01/17 01:23:39;;;;;;;59.50;23.53;;;;;;;;;;5046328;28;20285;-75
2024/01/17 01:26:05;;;;;;;56.20;23.13;;;;;;;;;;5029475;28;20224;-74
2024/01/17 01:28:30;;;;;;;58.83;23.33;;;;;;;;;;5045789;28;20224;-74
2024/01/17 01:30:55;;;;;;;60.50;22.67;;;;;;;;;;5045697;28;20293;-73
2024/01/17 01:33:21;;;;;;;50.60;20.67;;;;;;;;;;5046555;28;20666;-71
2024/01/17 01:35:46;;;;;;;49.43;20.33;;;;;;;;;;5028794;28;20251;-72
2024/01/17 01:38:12;;;;;;;45.67;19.40;;;;;;;;;;5028098;28;20316;-73
2024/01/17 01:40:38;;;;;;;46.40;19.60;;;;;;;;;;5046236;28;20328;-72
2024/01/17 01:43:22;;;;;;;48.73;19.97;;;;;;;;;;5029374;28;20285;-73
2024/01/17 01:46:04;;;;;;;49.87;20.03;;;;;;;;;;5044055;28;20223;-72
2024/01/17 01:48:30;;;;;;;54.27;21.90;;;;;;;;;;5006414;28;20312;-73
2024/01/17 01:50:55;;;;;;;52.63;21.37;;;;;;;;;;5043046;28;20675;-73
2024/01/17 01:53:21;;;;;;;50.73;20.73;;;;;;;;;;5045905;28;20231;-73
2024/01/17 01:55:46;;;;;;;47.87;20.93;;;;;;;;;;5028924;28;20227;-73
2024/01/17 01:58:11;;;;;;;50.40;20.67;;;;;;;;;;5044424;28;20239;-73
2024/01/17 02:00:37;;;;;;;46.43;19.63;;;;;;;;;;5045601;28;20321;-72
2024/01/17 02:03:02;;;;;;;49.27;20.63;;;;;;;;;;5043412;28;20216;-73
2024/01/17 02:05:27;;;;;;;49.80;21.13;;;;;;;;;;5028824;28;20303;-72
2024/01/17 02:07:53;;;;;;;46.70;20.37;;;;;;;;;;5063424;28;20664;-73
2024/01/17 02:10:18;;;;;;;47.40;20.33;;;;;;;;;;5042285;28;20238;-73
2024/01/17 02:12:43;;;;;;;49.73;20.43;;;;;;;;;;5044987;28;20240;-72
2024/01/17 02:15:09;;;;;;;46.43;19.90;;;;;;;;;;5045070;28;20241;-73
2024/01/17 02:17:34;;;;;;;46.57;19.63;;;;;;;;;;5028779;28;20221;-73
2024/01/17 02:20:02;;;;;;;45.40;19.13;;;;;;;;;;5027738;28;20643;-71
2024/01/17 02:22:27;;;;;;;45.47;19.60;;;;;;;;;;5046219;28;20213;-72
2024/01/17 02:24:53;;;;;;;51.27;20.77;;;;;;;;;;5028544;28;20220;-72
2024/01/17 02:27:18;;;;;;;49.57;20.57;;;;;;;;;;5028878;28;20227;-74
2024/01/17 02:29:46;;;;;;;49.93;20.60;;;;;;;;;;5045347;28;20487;-73
2024/01/17 02:32:11;;;;;;;49.97;20.10;;;;;;;;;;5045279;28;20258;-73
2024/01/17 02:34:36;;;;;;;46.27;18.97;;;;;;;;;;5028155;28;20326;-72
2024/01/17 02:37:02;;;;;;;43.17;19.90;;;;;;;;;;5044846;28;20252;-71
2024/01/17 02:39:27;;;;;;;48.70;20.27;;;;;;;;;;5028559;28;20260;-74
2024/01/17 02:41:53;;;;;;;52.23;21.30;;;;;;;;;;5027575;28;20232;-73
2024/01/17 02:44:18;;;;;;;54.97;22.73;;;;;;;;;;5028711;28;20227;-72
2024/01/17 02:46:43;;;;;;;52.50;21.50;;;;;;;;;;5064010;28;20281;-73
2024/01/17 02:49:14;;;;;;;54.40;22.27;;;;;;;;;;5044542;28;20602;-73
2024/01/17 02:51:39;;;;;;;51.93;22.03;;;;;;;;;;5044575;28;20220;-73
2024/01/17 02:54:05;;;;;;;58.37;23.23;;;;;;;;;;5044695;28;20228;-73
2024/01/17 02:56:31;;;;;;;53.27;21.67;;;;;;;;;;5045189;28;20248;-73
2024/01/17 02:58:56;;;;;;;52.10;21.27;;;;;;;;;;5043994;28;20917;-74
2024/01/17 03:01:21;;;;;;;56.17;21.93;;;;;;;;;;5045122;28;20221;-73
2024/01/17 03:03:47;;;;;;;51.13;21.43;;;;;;;;;;5027808;28;20616;-73
2024/01/17 03:06:12;;;;;;;52.07;21.47;;;;;;;;;;5028310;28;20259;-73
2024/01/17 03:08:38;;;;;;;48.77;21.53;;;;;;;;;;5063027;28;20236;-74
2024/01/17 03:11:03;;;;;;;50.30;21.50;;;;;;;;;;5047732;28;20221;-74
2024/01/17 03:13:29;;;;;;;47.37;21.10;;;;;;;;;;5049231;28;20298;-75
2024/01/17 03:15:54;;;;;;;50.67;20.37;;;;;;;;;;5048185;28;20228;-75
2024/01/17 03:18:19;;;;;;;52.07;21.00;;;;;;;;;;5065877;28;20300;-74
2024/01/17 03:20:45;;;;;;;51.23;21.87;;;;;;;;;;5031415;28;20229;-75
2024/01/17 03:23:10;;;;;;;51.93;21.50;;;;;;;;;;5031311;28;20959;-75
2024/01/17 03:25:35;;;;;;;48.40;21.00;;;;;;;;;;5048943;28;20225;-75
2024/01/17 03:28:01;;;;;;;46.33;20.57;;;;;;;;;;5048117;28;20248;-75
2024/01/17 03:30:26;;;;;;;51.80;20.97;;;;;;;;;;5047484;28;20228;-73
2024/01/17 03:32:51;;;;;;;49.20;20.80;;;;;;;;;;5032197;28;20221;-73
2024/01/17 03:35:17;;;;;;;48.33;21.50;;;;;;;;;;5066211;28;20319;-73
2024/01/17 03:37:42;;;;;;;51.33;20.80;;;;;;;;;;5048325;28;20221;-71
2024/01/17 03:40:08;;;;;;;47.87;21.37;;;;;;;;;;5031008;28;20236;-74
2024/01/17 03:42:33;;;;;;;48.13;21.40;;;;;;;;;;5048284;28;20224;-75
2024/01/17 03:44:58;;;;;;;46.90;20.37;;;;;;;;;;5065718;28;20213;-73
2024/01/17 03:47:24;;;;;;;44.63;19.03;;;;;;;;;;5031470;28;20225;-74
2024/01/17 03:49:49;;;;;;;45.20;18.53;;;;;;;;;;5066202;28;20668;-74
2024/01/17 03:52:15;;;;;;;43.03;19.00;;;;;;;;;;5048015;28;20224;-75
2024/01/17 03:54:40;;;;;;;45.77;18.77;;;;;;;;;;5047338;28;20225;-75
2024/01/17 03:57:08;;;;;;;42.40;18.50;;;;;;;;;;5047302;28;20884;-74
2024/01/17 03:59:33;;;;;;;40.10;17.00;;;;;;;;;;5048182;28;20308;-74
2024/01/17 04:01:59;;;;;;;36.50;15.90;;;;;;;;;;5047736;28;20295;-75
2024/01/17 04:04:24;;;;;;;33.83;15.80;;;;;;;;;;5031280;28;20221;-74
2024/01/17 04:06:50;;;;;;;36.67;14.97;;;;;;;;;;5030972;28;20605;-74
2024/01/17 04:09:15;;;;;;;32.50;14.77;;;;;;;;;;5047081;28;20232;-74
2024/01/17 04:11:40;;;;;;;37.40;17.23;;;;;;;;;;5048203;28;21055;-76
2024/01/17 04:14:07;;;;;;;38.30;16.73;;;;;;;;;;5030510;28;20228;-73
2024/01/17 04:16:34;;;;;;;39.80;18.00;;;;;;;;;;5047730;28;20717;-74
2024/01/17 04:19:00;;;;;;;44.27;18.63;;;;;;;;;;5026199;28;20277;-75
2024/01/17 04:21:25;;;;;;;54.57;21.13;;;;;;;;;;5045618;28;20229;-75
2024/01/17 04:23:51;;;;;;;50.90;20.53;;;;;;;;;;5028815;28;20259;-74
2024/01/17 04:26:21;;;;;;;46.20;20.07;;;;;;;;;;5044107;28;20212;-75
2024/01/17 04:28:47;;;;;;;58.43;23.70;;;;;;;;;;5046560;28;20216;-74
2024/01/17 04:31:14;;;;;;;51.70;22.67;;;;;;;;;;5045682;28;20301;-75
2024/01/17 04:33:39;;;;;;;57.87;23.17;;;;;;;;;;5028859;28;20663;-74
2024/01/17 04:36:05;;;;;;;63.33;26.20;;;;;;;;;;5029620;28;20244;-73
2024/01/17 04:38:30;;;;;;;67.53;26.97;;;;;;;;;;5037242;28;20289;-73
2024/01/17 04:40:55;;;;;;;74.40;29.97;;;;;;;;;;5045541;28;20255;-74
2024/01/17 04:43:22;;;;;;;77.53;30.97;;;;;;;;;;5064499;28;20228;-73
2024/01/17 04:45:48;;;;;;;72.40;28.73;;;;;;;;;;5030432;28;20227;-74
2024/01/17 04:48:14;;;;;;;71.50;28.00;;;;;;;;;;5028320;28;20216;-74
2024/01/17 04:50:39;;;;;;;62.20;26.87;;;;;;;;;;5030330;28;20763;-74
2024/01/17 04:53:04;;;;;;;60.73;24.47;;;;;;;;;;5020645;28;20228;-75
2024/01/17 04:55:30;;;;;;;46.80;20.57;;;;;;;;;;5045886;28;20228;-75
2024/01/17 04:57:55;;;;;;;42.07;18.67;;;;;;;;;;5044254;28;20668;-74
2024/01/17 05:00:21;;;;;;;48.20;19.73;;;;;;;;;;5046859;28;20220;-74
2024/01/17 05:02:46;;;;;;;41.20;17.73;;;;;;;;;;5045572;28;20260;-74
2024/01/17 05:05:11;;;;;;;40.87;18.27;;;;;;;;;;5028722;28;20244;-74
2024/01/17 05:07:37;;;;;;;42.93;18.67;;;;;;;;;;5029175;28;20224;-75
2024/01/17 05:10:02;;;;;;;41.37;17.47;;;;;;;;;;5045059;28;20622;-75
2024/01/17 05:12:27;;;;;;;38.53;17.10;;;;;;;;;;5028440;28;20698;-75
2024/01/17 05:14:53;;;;;;;40.23;18.07;;;;;;;;;;5043788;28;20268;-75
2024/01/17 05:17:18;;;;;;;41.53;19.30;;;;;;;;;;5045566;28;20220;-75
2024/01/17 05:19:43;;;;;;;43.50;18.40;;;;;;;;;;5046269;28;20714;-74
2024/01/17 05:22:12;;;;;;;43.63;18.37;;;;;;;;;;5027776;28;20228;-73
2024/01/17 05:24:37;;;;;;;38.63;17.63;;;;;;;;;;5046336;28;20224;-76
2024/01/17 05:27:02;;;;;;;40.80;17.70;;;;;;;;;;5063107;28;20220;-75
2024/01/17 05:29:30;;;;;;;43.43;17.87;;;;;;;;;;5065276;28;20228;-73
2024/01/17 05:31:55;;;;;;;42.83;18.07;;;;;;;;;;5040100;28;20239;-74
2024/01/17 05:34:21;;;;;;;46.23;19.30;;;;;;;;;;5046655;28;20221;-74
2024/01/17 05:36:46;;;;;;;42.77;18.33;;;;;;;;;;5044839;28;20224;-74
2024/01/17 05:39:12;;;;;;;41.33;18.20;;;;;;;;;;5026195;28;20732;-74
2024/01/17 05:41:37;;;;;;;43.30;18.63;;;;;;;;;;5045392;28;20783;-74
2024/01/17 05:44:03;;;;;;;41.00;16.87;;;;;;;;;;5027853;28;20224;-74
2024/01/17 05:46:28;;;;;;;40.00;17.63;;;;;;;;;;5028168;28;20285;-74
2024/01/17 05:48:53;;;;;;;38.77;16.93;;;;;;;;;;5045292;28;20220;-74
2024/01/17 05:51:19;;;;;;;37.83;17.67;;;;;;;;;;5044740;28;20224;-74
2024/01/17 05:53:44;;;;;;;38.57;17.50;;;;;;;;;;5043218;28;20224;-74
2024/01/17 05:56:09;;;;;;;39.40;18.17;;;;;;;;;;5043815;28;20267;-74
2024/01/17 05:58:35;;;;;;;39.00;17.37;;;;;;;;;;5062968;28;20229;-73
2024/01/17 06:01:00;;;;;;;39.27;17.30;;;;;;;;;;5025816;28;20221;-71
2024/01/17 06:03:25;;;;;;;40.17;17.77;;;;;;;;;;5027762;28;20228;-72
2024/01/17 06:05:52;;;;;;;40.70;18.00;;;;;;;;;;5045092;28;20305;-72
2024/01/17 06:08:18;;;;;;;41.17;18.23;;;;;;;;;;5043330;28;20220;-73
2024/01/17 06:10:44;;;;;;;39.93;18.00;;;;;;;;;;5028667;28;20286;-73
2024/01/17 06:13:09;;;;;;;39.63;17.53;;;;;;;;;;5060740;28;20229;-72
2024/01/17 06:15:34;;;;;;;40.50;17.67;;;;;;;;;;5027225;28;20240;-71
2024/01/17 06:18:00;;;;;;;52.47;24.47;;;;;;;;;;5061980;28;20228;-72
2024/01/17 06:20:25;;;;;;;41.57;20.83;;;;;;;;;;5042744;28;20614;-72
2024/01/17 06:22:50;;;;;;;47.33;18.90;;;;;;;;;;5028279;28;20729;-72
2024/01/17 06:25:16;;;;;;;42.33;17.67;;;;;;;;;;5027098;28;20865;-72
2024/01/17 06:27:42;;;;;;;41.03;17.53;;;;;;;;;;5063804;28;20821;-72
2024/01/17 06:30:08;;;;;;;37.20;17.70;;;;;;;;;;5028036;28;20233;-72
2024/01/17 06:32:33;;;;;;;36.83;17.10;;;;;;;;;;5027843;28;20224;-73
2024/01/17 06:34:58;;;;;;;41.57;18.10;;;;;;;;;;5042750;28;20660;-72
2024/01/17 06:37:24;;;;;;;42.77;18.40;;;;;;;;;;5045058;28;20254;-72
2024/01/17 06:39:49;;;;;;;40.87;18.30;;;;;;;;;;5045041;28;20224;-73
2024/01/17 06:42:16;;;;;;;43.10;18.93;;;;;;;;;;5062513;28;20330;-73
2024/01/17 06:44:41;;;;;;;39.07;18.10;;;;;;;;;;5045989;28;20212;-73
2024/01/17 06:47:07;;;;;;;43.80;18.63;;;;;;;;;;5049120;28;20234;-72
2024/01/17 06:49:32;;;;;;;44.40;19.20;;;;;;;;;;5049843;28;20264;-72
2024/01/17 06:51:57;;;;;;;40.60;18.47;;;;;;;;;;5032177;28;20219;-73
2024/01/17 06:54:23;;;;;;;40.67;18.30;;;;;;;;;;5067470;28;20613;-73
2024/01/17 06:56:48;;;;;;;49.40;20.37;;;;;;;;;;5049603;28;20712;-72
2024/01/17 06:59:16;;;;;;;45.07;19.80;;;;;;;;;;5031838;28;20219;-72
2024/01/17 07:01:41;;;;;;;48.43;22.10;;;;;;;;;;5032589;28;20221;-72
2024/01/17 07:04:07;;;;;;;52.50;23.73;;;;;;;;;;5048907;28;20224;-73
2024/01/17 07:06:32;;;;;;;58.93;24.50;;;;;;;;;;5048572;28;20247;-73
2024/01/17 07:08:59;;;;;;;55.73;23.90;;;;;;;;;;5031645;28;20815;-73
2024/01/17 07:11:24;;;;;;;55.10;24.37;;;;;;;;;;5048843;28;20220;-73
2024/01/17 07:13:49;;;;;;;54.10;23.77;;;;;;;;;;5032745;28;20220;-72
2024/01/17 07:16:15;;;;;;;57.07;25.40;;;;;;;;;;5046553;28;20949;-73
2024/01/17 07:18:41;;;;;;;60.20;25.33;;;;;;;;;;5031662;28;20310;-71
2024/01/17 07:21:06;;;;;;;60.13;26.33;;;;;;;;;;5031314;28;20323;-72
2024/01/17 07:23:32;;;;;;;58.13;26.00;;;;;;;;;;5031396;28;20220;-71
2024/01/17 07:25:58;;;;;;;60.83;25.87;;;;;;;;;;5048301;28;20219;-70
2024/01/17 07:28:23;;;;;;;61.53;26.30;;;;;;;;;;5047777;28;20467;-72
2024/01/17 07:30:48;;;;;;;56.87;25.63;;;;;;;;;;5032039;28;20247;-72
2024/01/17 07:33:14;;;;;;;54.33;25.17;;;;;;;;;;5066350;28;20225;-72
2024/01/17 07:35:39;;;;;;;58.23;25.93;;;;;;;;;;5047162;28;20236;-71
2024/01/17 07:38:04;;;;;;;62.00;27.10;;;;;;;;;;5065744;28;20308;-72
2024/01/17 07:40:30;;;;;;;69.13;28.10;;;;;;;;;;5066576;28;20693;-71
2024/01/17 07:42:55;;;;;;;65.47;28.60;;;;;;;;;;5066191;28;20249;-72
2024/01/17 07:45:21;;;;;;;65.83;28.33;;;;;;;;;;5044464;28;20717;-73
2024/01/17 07:47:47;;;;;;;66.60;28.37;;;;;;;;;;5047103;28;20304;-72
2024/01/17 07:50:12;;;;;;;78.50;31.87;;;;;;;;;;5046550;28;20225;-73
2024/01/17 07:52:38;;;;;;;76.43;32.07;;;;;;;;;;5031122;28;20266;-74
2024/01/17 07:55:04;;;;;;;90.83;37.67;;;;;;;;;;5046558;28;20236;-74
2024/01/17 07:57:29;;;;;;;97.77;38.00;;;;;;;;;;5046715;28;20225;-74
2024/01/17 07:59:55;;;;;;;96.20;39.63;;;;;;;;;;5046721;28;20229;-74
2024/01/17 08:02:20;;;;;;;96.47;40.13;;;;;;;;;;5048521;28;20259;-74
2024/01/17 08:04:45;;;;;;;98.27;39.93;;;;;;;;;;5029955;28;20227;-74
2024/01/17 08:07:11;;;;;;;93.03;38.40;;;;;;;;;;5030374;28;20699;-73
2024/01/17 08:09:37;;;;;;;91.17;39.07;;;;;;;;;;5047926;28;20313;-72
2024/01/17 08:12:03;;;;;;;81.17;35.47;;;;;;;;;;5036568;28;20278;-74
2024/01/17 08:14:28;;;;;;;80.23;35.47;;;;;;;;;;5047203;28;20217;-73
2024/01/17 08:16:54;;;;;;;79.00;33.67;;;;;;;;;;5046649;28;20217;-73
2024/01/17 08:19:19;;;;;;;73.10;32.47;;;;;;;;;;5047076;28;20220;-73
2024/01/17 08:21:46;;;;;;;73.83;32.43;;;;;;;;;;5030955;28;20229;-72
2024/01/17 08:24:11;;;;;;;72.50;31.80;;;;;;;;;;5043570;28;20224;-73
2024/01/17 08:26:40;;;;;;;74.73;32.30;;;;;;;;;;5030869;28;20286;-71
2024/01/17 08:29:05;;;;;;;66.73;30.63;;;;;;;;;;5046539;28;20251;-73
2024/01/17 08:31:31;;;;;;;74.57;31.23;;;;;;;;;;5031241;28;20224;-73
2024/01/17 08:33:56;;;;;;;74.37;31.23;;;;;;;;;;5046539;28;20646;-73
2024/01/17 08:36:22;;;;;;;70.63;31.13;;;;;;;;;;5047015;28;20235;-73
2024/01/17 08:38:48;;;;;;;67.77;30.50;;;;;;;;;;5046925;28;20212;-73
2024/01/17 08:41:13;;;;;;;73.17;30.87;;;;;;;;;;5046662;28;20220;-73
2024/01/17 08:43:39;;;;;;;72.87;31.10;;;;;;;;;;5030295;28;20607;-74
2024/01/17 08:46:05;;;;;;;78.10;32.20;;;;;;;;;;5029372;28;20239;-73
2024/01/17 08:48:30;;;;;;;74.33;30.83;;;;;;;;;;5030217;28;20698;-73
2024/01/17 08:50:56;;;;;;;70.60;29.03;;;;;;;;;;5047035;28;20225;-74
2024/01/17 08:53:21;;;;;;;66.43;27.87;;;;;;;;;;5064692;28;20224;-73
2024/01/17 08:55:47;;;;;;;66.27;27.83;;;;;;;;;;5046665;28;20304;-74
2024/01/17 08:58:13;;;;;;;58.33;25.43;;;;;;;;;;5046297;28;20327;-74
2024/01/17 09:00:38;;;;;;;56.93;25.67;;;;;;;;;;5047387;28;20229;-74
2024/01/17 09:03:04;;;;;;;62.10;25.53;;;;;;;;;;5028738;28;20213;-73
2024/01/17 09:05:29;;;;;;;60.63;25.37;;;;;;;;;;5030332;28;20225;-73
2024/01/17 09:07:55;;;;;;;60.10;24.83;;;;;;;;;;5043280;28;20772;-73
2024/01/17 09:10:20;;;;;;;56.63;25.33;;;;;;;;;;5064171;28;20236;-73
2024/01/17 09:12:45;;;;;;;61.93;24.57;;;;;;;;;;5046793;28;20225;-73
2024/01/17 09:15:11;;;;;;;65.23;26.07;;;;;;;;;;5029502;28;20241;-73
2024/01/17 09:17:36;;;;;;;61.23;26.60;;;;;;;;;;5046174;28;20220;-73
2024/01/17 09:20:03;;;;;;;63.57;27.13;;;;;;;;;;5028822;28;20252;-73
2024/01/17 09:22:29;;;;;;;65.73;26.77;;;;;;;;;;5046525;28;20298;-73
2024/01/17 09:24:54;;;;;;;66.47;27.77;;;;;;;;;;5045160;28;20225;-73
2024/01/17 09:27:19;;;;;;;60.27;27.17;;;;;;;;;;5064575;28;20229;-73
2024/01/17 09:29:45;;;;;;;58.77;26.80;;;;;;;;;;5030196;28;20220;-74
2024/01/17 09:32:12;;;;;;;62.97;26.83;;;;;;;;;;5045847;28;20228;-74
2024/01/17 09:34:37;;;;;;;62.50;25.67;;;;;;;;;;5029883;28;20231;-73
2024/01/17 09:37:03;;;;;;;58.00;25.57;;;;;;;;;;5045779;28;20224;-74
2024/01/17 09:39:28;;;;;;;59.53;25.37;;;;;;;;;;5064710;28;20685;-73
2024/01/17 09:41:54;;;;;;;60.30;25.90;;;;;;;;;;5044720;28;20227;-73
2024/01/17 09:44:20;;;;;;;58.27;24.87;;;;;;;;;;5064029;28;20228;-72
2024/01/17 09:46:45;;;;;;;59.63;25.37;;;;;;;;;;5046350;28;20612;-72
2024/01/17 09:49:10;;;;;;;56.90;23.57;;;;;;;;;;5043776;28;20734;-73
2024/01/17 09:51:36;;;;;;;56.90;23.90;;;;;;;;;;5045120;28;20311;-72
2024/01/17 09:54:05;;;;;;;55.23;24.27;;;;;;;;;;5043308;28;20224;-74
2024/01/17 09:56:31;;;;;;;56.90;24.13;;;;;;;;;;5045283;28;20236;-72
2024/01/17 09:58:57;;;;;;;50.87;22.60;;;;;;;;;;5045444;28;20225;-73
2024/01/17 10:01:22;;;;;;;56.43;23.47;;;;;;;;;;5029344;28;20224;-72
2024/01/17 10:03:48;;;;;;;57.93;23.70;;;;;;;;;;5028000;28;20215;-73
2024/01/17 10:06:14;;;;;;;53.63;23.67;;;;;;;;;;5043109;28;20331;-72
2024/01/17 10:08:39;;;;;;;63.10;23.03;;;;;;;;;;5045834;28;20319;-72
2024/01/17 10:11:05;;;;;;;61.83;26.63;;;;;;;;;;5044506;28;20327;-73
2024/01/17 10:13:30;;;;;;;51.37;22.60;;;;;;;;;;5044675;28;20307;-74
2024/01/17 10:15:56;;;;;;;53.97;23.30;;;;;;;;;;5028245;28;20232;-73
2024/01/17 10:18:22;;;;;;;58.13;22.83;;;;;;;;;;5028815;28;20221;-71
2024/01/17 10:20:47;;;;;;;51.33;22.20;;;;;;;;;;5044938;28;20675;-73
2024/01/17 10:23:13;;;;;;;53.70;22.83;;;;;;;;;;5063129;28;20701;-72
2024/01/17 10:25:39;;;;;;;50.83;22.73;;;;;;;;;;5063677;28;20685;-72
2024/01/17 10:28:04;;;;;;;49.93;21.30;;;;;;;;;;5027973;28;20217;-72
2024/01/17 10:30:30;;;;;;;48.10;21.83;;;;;;;;;;5028778;28;20217;-72
2024/01/17 10:32:55;;;;;;;55.67;23.27;;;;;;;;;;5028034;28;20303;-72
2024/01/17 10:35:23;;;;;;;51.20;23.57;;;;;;;;;;5028306;28;20236;-72
2024/01/17 10:37:49;;;;;;;54.10;24.37;;;;;;;;;;5063874;28;20281;-72
2024/01/17 10:40:15;;;;;;;59.37;24.57;;;;;;;;;;5027580;28;20713;-73
2024/01/17 10:42:41;;;;;;;54.70;24.20;;;;;;;;;;5044549;28;20270;-71
2024/01/17 10:45:06;;;;;;;50.73;23.60;;;;;;;;;;5044699;28;20994;-73
2024/01/17 10:47:32;;;;;;;52.97;22.33;;;;;;;;;;5046055;28;20221;-73
2024/01/17 10:49:57;;;;;;;59.63;22.53;;;;;;;;;;5044672;28;20801;-72
2024/01/17 10:52:24;;;;;;;50.00;21.87;;;;;;;;;;5044879;28;20226;-73
2024/01/17 10:54:50;;;;;;;49.07;22.17;;;;;;;;;;5045158;28;20232;-74
2024/01/17 10:57:15;;;;;;;46.17;21.57;;;;;;;;;;5028497;28;20243;-73
2024/01/17 10:59:47;;;;;;;46.00;20.50;;;;;;;;;;5062540;28;20243;-73
2024/01/17 11:02:21;;;;;;;47.23;20.67;;;;;;;;;;5027634;28;20236;-72
2024/01/17 11:04:48;;;;;;;47.97;21.50;;;;;;;;;;5027258;28;20224;-72
2024/01/17 11:07:16;;;;;;;51.03;21.57;;;;;;;;;;5063040;28;20317;-72
2024/01/17 11:09:42;;;;;;;56.67;21.17;;;;;;;;;;5028248;28;20243;-72
2024/01/17 11:12:07;;;;;;;52.43;22.10;;;;;;;;;;5027862;28;20216;-72
2024/01/17 11:14:33;;;;;;;47.93;21.47;;;;;;;;;;5044576;28;20213;-74
2024/01/17 11:17:03;;;;;;;43.20;20.03;;;;;;;;;;5043641;28;20220;-73
2024/01/17 11:19:29;;;;;;;45.17;20.40;;;;;;;;;;5045751;28;20221;-74
2024/01/17 11:21:54;;;;;;;43.37;20.13;;;;;;;;;;5041025;28;20886;-73
2024/01/17 11:24:22;;;;;;;40.47;18.33;;;;;;;;;;5044091;28;20804;-73
2024/01/17 11:26:52;;;;;;;38.07;18.30;;;;;;;;;;5062286;28;20212;-73
2024/01/17 11:29:25;;;;;;;35.23;16.97;;;;;;;;;;5043351;28;20217;-73
2024/01/17 11:31:56;;;;;;;35.37;17.27;;;;;;;;;;5047410;28;20228;-72
2024/01/17 11:34:22;;;;;;;36.73;16.70;;;;;;;;;;5054533;28;20225;-73
2024/01/17 11:36:47;;;;;;;39.30;17.20;;;;;;;;;;5031079;28;20727;-73
2024/01/17 11:39:16;;;;;;;38.90;18.07;;;;;;;;;;5047879;28;20243;-73
2024/01/17 11:41:42;;;;;;;41.13;18.27;;;;;;;;;;5031545;28;20243;-73
2024/01/17 11:44:07;;;;;;;39.20;18.30;;;;;;;;;;5030937;28;20675;-74
2024/01/17 11:46:34;;;;;;;40.10;17.43;;;;;;;;;;5031663;28;20220;-73
2024/01/17 11:49:00;;;;;;;36.97;17.90;;;;;;;;;;5030728;28;20256;-72
2024/01/17 11:51:25;;;;;;;40.47;18.93;;;;;;;;;;5032228;28;20240;-72
2024/01/17 11:53:50;;;;;;;42.30;17.97;;;;;;;;;;5031564;28;20221;-73
2024/01/17 11:56:20;;;;;;;36.50;17.07;;;;;;;;;;5030207;28;20706;-71
2024/01/17 11:58:52;;;;;;;39.53;17.70;;;;;;;;;;5043020;28;20231;-73
2024/01/17 12:01:38;;;;;;;37.47;16.77;;;;;;;;;;5030996;28;20213;-73
2024/01/17 12:04:10;;;;;;;35.53;16.63;;;;;;;;;;5030359;28;20232;-72
2024/01/17 12:06:37;;;;;;;36.43;16.43;;;;;;;;;;5048086;28;20217;-73
2024/01/17 12:09:02;;;;;;;35.33;16.73;;;;;;;;;;5046899;28;20309;-72
2024/01/17 12:11:28;;;;;;;43.40;18.70;;;;;;;;;;5047913;28;20224;-73
2024/01/17 12:13:53;;;;;;;47.40;18.87;;;;;;;;;;5030709;28;20231;-73
2024/01/17 12:16:21;;;;;;;39.20;17.93;;;;;;;;;;5031121;28;20240;-73
2024/01/17 12:18:47;;;;;;;39.00;18.03;;;;;;;;;;5048099;28;20259;-73
2024/01/17 12:21:13;;;;;;;45.47;18.47;;;;;;;;;;5029720;28;20228;-73
2024/01/17 12:23:38;;;;;;;45.77;19.33;;;;;;;;;;5048114;28;20225;-72
2024/01/17 12:26:04;;;;;;;45.60;18.60;;;;;;;;;;5047478;28;20249;-74
2024/01/17 12:28:29;;;;;;;43.70;19.57;;;;;;;;;;5047486;28;20229;-73
2024/01/17 12:30:58;;;;;;;45.43;19.67;;;;;;;;;;5030207;28;20209;-73
2024/01/17 12:33:24;;;;;;;53.30;20.60;;;;;;;;;;5024698;28;20311;-73
2024/01/17 12:35:51;;;;;;;46.97;20.30;;;;;;;;;;5031219;28;20323;-71
2024/01/17 12:38:16;;;;;;;46.17;20.90;;;;;;;;;;5046613;28;20229;-72
2024/01/17 12:40:42;;;;;;;52.83;20.77;;;;;;;;;;5047190;28;20660;-73
2024/01/17 12:43:07;;;;;;;47.20;17.67;;;;;;;;;;5044132;28;20239;-72
2024/01/17 12:45:34;;;;;;;42.37;17.60;;;;;;;;;;5046800;28;20941;-73
2024/01/17 12:47:59;;;;;;;36.17;16.17;;;;;;;;;;5029730;28;20221;-72
2024/01/17 12:50:25;;;;;;;37.70;15.67;;;;;;;;;;5065281;28;20231;-73
2024/01/17 12:52:50;;;;;;;35.40;16.37;;;;;;;;;;5029001;28;20236;-73
2024/01/17 12:55:21;;;;;;;31.80;14.33;;;;;;;;;;5030024;28;20232;-73
2024/01/17 12:57:47;;;;;;;29.87;13.53;;;;;;;;;;5031002;28;20329;-73
2024/01/17 13:00:12;;;;;;;30.87;14.27;;;;;;;;;;5046564;28;20791;-73
2024/01/17 13:02:38;;;;;;;36.10;13.80;;;;;;;;;;5030355;28;20282;-73
2024/01/17 13:05:09;;;;;;;31.07;13.57;;;;;;;;;;5046635;28;20212;-73
2024/01/17 13:07:35;;;;;;;29.77;13.33;;;;;;;;;;5064046;28;20228;-73
2024/01/17 13:10:16;;;;;;;33.40;14.03;;;;;;;;;;5029258;28;20729;-72
2024/01/17 13:12:42;;;;;;;28.90;12.60;;;;;;;;;;5064515;28;20784;-71
2024/01/17 13:15:08;;;;;;;23.33;11.63;;;;;;;;;;5029290;28;20232;-72
2024/01/17 13:17:33;;;;;;;27.40;11.87;;;;;;;;;;5046005;28;20252;-73
2024/01/17 13:19:58;;;;;;;26.90;11.90;;;;;;;;;;5045985;28;20626;-73
2024/01/17 13:22:24;;;;;;;24.67;11.77;;;;;;;;;;5028800;28;20308;-73
2024/01/17 13:24:49;;;;;;;28.97;12.40;;;;;;;;;;5029606;28;20220;-73
2024/01/17 13:27:15;;;;;;;23.77;12.10;;;;;;;;;;5029180;28;21984;-73
2024/01/17 13:29:40;;;;;;;31.17;12.23;;;;;;;;;;5064646;28;20220;-73
2024/01/17 13:32:05;;;;;;;26.00;12.00;;;;;;;;;;5045412;28;20229;-73
2024/01/17 13:34:31;;;;;;;24.43;11.10;;;;;;;;;;5046741;28;20216;-73
2024/01/17 13:36:56;;;;;;;24.60;10.30;;;;;;;;;;5046047;28;20247;-72
2024/01/17 13:39:26;;;;;;;19.83;9.23;;;;;;;;;;5046119;28;20227;-73
2024/01/17 13:41:51;;;;;;;20.33;9.07;;;;;;;;;;5046831;28;20224;-73
2024/01/17 13:44:20;;;;;;;19.93;9.90;;;;;;;;;;5045813;28;20213;-72
2024/01/17 13:46:46;;;;;;;20.97;10.03;;;;;;;;;;5064064;28;20317;-73
2024/01/17 13:49:11;;;;;;;22.17;9.43;;;;;;;;;;5027500;28;21005;-73
2024/01/17 13:51:43;;;;;;;24.77;9.30;;;;;;;;;;5045883;28;20637;-73
2024/01/17 13:54:15;;;;;;;16.43;7.00;;;;;;;;;;5043600;28;20231;-73
2024/01/17 13:56:42;;;;;;;15.67;7.40;;;;;;;;;;5045095;28;20244;-74
2024/01/17 13:59:08;;;;;;;10.93;6.33;;;;;;;;;;5028960;28;20905;-74
2024/01/17 14:01:34;;;;;;;16.83;7.70;;;;;;;;;;5028278;28;20304;-71
2024/01/17 14:03:59;;;;;;;16.67;7.30;;;;;;;;;;5027987;28;20300;-74
2024/01/17 14:06:25;;;;;;;15.37;7.77;;;;;;;;;;5064497;28;20216;-74
2024/01/17 14:08:50;;;;;;;13.83;7.07;;;;;;;;;;5044002;28;20244;-74